Time;durP1;ratioP1;P1;durP2;ratioP2;P2;SDS_P1;SDS_P2;PMS_P1;PMS_P2;Temp;Humidity;BMP_temperature;BMP_pressure;BME280_temperature;BME280_humidity;BME280_pressure;Samples;Min_cycle;Max_cycle;Signal;HPM_P1;HPM_P2
2023/10/27 00:00:25;;;;;;;8.30;6.28;;;12.90;99.90;;;;;;4125319;28;20045;-71
2023/10/27 00:02:26;;;;;;;9.45;7.00;;;12.90;99.90;;;;;;4126262;28;20035;-71
2023/10/27 00:04:26;;;;;;;10.35;7.63;;;12.90;99.90;;;;;;4129127;28;20038;-65
2023/10/27 00:06:27;;;;;;;9.82;8.05;;;12.90;99.90;;;;;;4126518;28;20026;-66
2023/10/27 00:08:28;;;;;;;8.60;6.68;;;12.80;99.90;;;;;;4125052;28;20278;-66
2023/10/27 00:10:28;;;;;;;11.27;7.70;;;12.80;99.90;;;;;;4126974;28;20086;-65
2023/10/27 00:12:29;;;;;;;9.88;6.82;;;12.80;99.90;;;;;;4128491;28;20522;-65
2023/10/27 00:14:30;;;;;;;10.18;7.15;;;12.80;99.90;;;;;;4129401;28;20076;-66
2023/10/27 00:16:30;;;;;;;9.63;6.95;;;12.80;99.90;;;;;;4126968;28;20470;-66
2023/10/27 00:18:31;;;;;;;9.32;7.25;;;12.80;99.90;;;;;;4126432;28;20157;-66
2023/10/27 00:20:32;;;;;;;8.38;6.55;;;12.80;99.90;;;;;;4124185;28;20367;-66
2023/10/27 00:22:33;;;;;;;8.43;6.32;;;12.80;99.90;;;;;;4127690;28;20042;-66
2023/10/27 00:24:33;;;;;;;9.10;6.80;;;12.80;99.90;;;;;;4127656;28;20049;-66
2023/10/27 00:26:34;;;;;;;8.02;6.32;;;12.80;99.90;;;;;;4124657;28;20466;-66
2023/10/27 00:28:34;;;;;;;7.22;5.80;;;12.80;99.90;;;;;;4126151;28;20039;-66
2023/10/27 00:30:35;;;;;;;7.15;6.18;;;12.80;99.90;;;;;;4126622;28;20088;-66
2023/10/27 00:32:37;;;;;;;10.52;6.60;;;12.80;99.90;;;;;;4125995;28;20072;-66
2023/10/27 00:34:39;;;;;;;8.15;5.60;;;12.80;99.90;;;;;;4125659;28;20589;-66
2023/10/27 00:36:39;;;;;;;9.20;5.55;;;12.80;99.90;;;;;;4125998;28;20129;-67
2023/10/27 00:38:40;;;;;;;7.80;5.90;;;12.70;99.90;;;;;;4126669;28;20054;-66
2023/10/27 00:40:41;;;;;;;9.23;6.05;;;12.70;99.90;;;;;;4126747;28;20062;-67
2023/10/27 00:42:41;;;;;;;8.63;5.90;;;12.70;99.90;;;;;;4125666;28;20038;-66
2023/10/27 00:44:42;;;;;;;7.18;5.93;;;12.70;99.90;;;;;;4125788;28;20123;-66
2023/10/27 00:46:44;;;;;;;6.72;5.13;;;12.70;99.90;;;;;;4125246;28;20911;-66
2023/10/27 00:48:44;;;;;;;7.97;6.10;;;12.60;99.90;;;;;;4124876;28;20462;-66
2023/10/27 00:50:45;;;;;;;7.60;5.65;;;12.70;99.90;;;;;;4126221;28;20429;-66
2023/10/27 00:52:46;;;;;;;7.93;6.57;;;12.60;99.90;;;;;;4125383;28;20074;-66
2023/10/27 00:54:48;;;;;;;8.82;6.25;;;12.60;99.90;;;;;;4128125;28;20049;-66
2023/10/27 00:56:49;;;;;;;8.98;6.15;;;12.50;99.90;;;;;;4123829;28;20058;-66
2023/10/27 00:58:50;;;;;;;7.22;5.68;;;12.60;99.90;;;;;;4128303;28;20033;-66
2023/10/27 01:00:54;;;;;;;7.40;5.45;;;12.60;99.90;;;;;;4126358;28;20034;-66
2023/10/27 01:02:55;;;;;;;7.07;5.28;;;12.60;99.90;;;;;;4126600;28;20038;-65
2023/10/27 01:04:56;;;;;;;8.02;5.03;;;12.60;99.90;;;;;;4125126;28;20125;-66
2023/10/27 01:06:56;;;;;;;9.90;5.93;;;12.50;99.90;;;;;;4124203;28;20042;-66
2023/10/27 01:08:57;;;;;;;10.35;6.10;;;12.60;99.90;;;;;;4128085;28;20081;-66
2023/10/27 01:10:58;;;;;;;9.95;5.75;;;12.60;99.90;;;;;;4123634;28;20042;-66
2023/10/27 01:12:59;;;;;;;7.80;5.20;;;12.50;99.90;;;;;;4127501;28;20105;-66
2023/10/27 01:14:59;;;;;;;9.13;5.35;;;12.50;99.90;;;;;;4125138;28;20398;-72
2023/10/27 01:17:00;;;;;;;8.77;5.45;;;12.50;99.90;;;;;;4124233;28;20037;-72
2023/10/27 01:19:00;;;;;;;9.40;5.72;;;12.50;99.90;;;;;;4125323;28;20506;-71
2023/10/27 01:21:01;;;;;;;8.32;5.60;;;12.50;99.90;;;;;;4124783;28;20042;-71
2023/10/27 01:23:03;;;;;;;10.15;6.30;;;12.50;99.90;;;;;;4125556;28;20034;-72
2023/10/27 01:25:04;;;;;;;8.82;5.03;;;12.50;99.90;;;;;;4125251;28;20046;-72
2023/10/27 01:27:05;;;;;;;8.40;5.50;;;12.50;99.90;;;;;;4125791;28;20088;-71
2023/10/27 01:29:05;;;;;;;7.18;5.10;;;12.50;99.90;;;;;;4128249;28;20513;-71
2023/10/27 01:31:06;;;;;;;6.43;4.35;;;12.40;99.90;;;;;;4129398;28;20575;-71
2023/10/27 01:33:06;;;;;;;6.70;4.60;;;12.50;99.90;;;;;;4130795;28;20039;-71
2023/10/27 01:35:07;;;;;;;9.65;5.47;;;12.50;99.90;;;;;;4129600;28;20117;-71
2023/10/27 01:37:08;;;;;;;6.38;5.03;;;12.50;99.90;;;;;;4129038;28;20046;-71
2023/10/27 01:39:11;;;;;;;8.23;5.28;;;12.50;99.90;;;;;;4128247;28;20039;-72
2023/10/27 01:41:11;;;;;;;10.07;4.60;;;12.50;99.90;;;;;;4116476;28;20041;-71
2023/10/27 01:43:13;;;;;;;6.93;5.20;;;12.50;99.90;;;;;;4129639;28;20133;-71
2023/10/27 01:45:13;;;;;;;8.40;5.35;;;12.50;99.90;;;;;;4132868;28;20406;-72
2023/10/27 01:47:14;;;;;;;6.75;4.78;;;12.50;99.90;;;;;;4132926;28;20038;-71
2023/10/27 01:49:14;;;;;;;9.00;4.90;;;12.50;99.90;;;;;;4131845;28;20614;-71
2023/10/27 01:51:15;;;;;;;5.53;4.40;;;12.50;99.90;;;;;;4132986;28;20414;-71
2023/10/27 01:53:16;;;;;;;7.60;4.40;;;12.50;99.90;;;;;;4133483;28;20092;-71
2023/10/27 01:55:17;;;;;;;8.32;4.82;;;12.50;99.90;;;;;;4132383;28;20066;-71
2023/10/27 01:57:17;;;;;;;6.13;4.50;;;12.50;99.90;;;;;;4131727;28;20069;-71
2023/10/27 01:59:18;;;;;;;9.82;5.25;;;12.50;99.90;;;;;;4133962;28;20039;-71
2023/10/27 02:01:18;;;;;;;8.75;4.38;;;12.50;99.90;;;;;;4133450;28;20034;-71
2023/10/27 02:03:19;;;;;;;8.07;4.82;;;12.50;99.90;;;;;;4135225;28;20040;-71
2023/10/27 02:05:19;;;;;;;9.00;5.03;;;12.50;99.90;;;;;;4132826;28;20125;-71
2023/10/27 02:07:24;;;;;;;11.70;4.90;;;12.50;99.90;;;;;;4130986;28;20065;-70
2023/10/27 02:09:25;;;;;;;9.15;4.47;;;12.50;99.90;;;;;;4132366;28;20422;-71
2023/10/27 02:11:26;;;;;;;6.93;4.60;;;12.50;99.90;;;;;;4131684;28;20049;-70
2023/10/27 02:13:27;;;;;;;8.45;4.95;;;12.50;99.90;;;;;;4131650;28;20072;-71
2023/10/27 02:15:27;;;;;;;11.63;4.65;;;12.50;99.90;;;;;;4132719;28;20034;-71
2023/10/27 02:17:28;;;;;;;7.35;4.25;;;12.50;99.90;;;;;;4130270;28;21643;-70
2023/10/27 02:19:29;;;;;;;10.50;4.80;;;12.50;99.90;;;;;;4132510;28;20419;-70
2023/10/27 02:21:29;;;;;;;9.40;4.43;;;12.50;99.90;;;;;;4119706;28;20465;-71
2023/10/27 02:23:30;;;;;;;11.02;4.50;;;12.40;99.90;;;;;;4130130;28;20461;-70
2023/10/27 02:25:31;;;;;;;10.25;4.53;;;12.50;99.90;;;;;;4131999;28;20133;-71
2023/10/27 02:27:31;;;;;;;8.10;4.43;;;12.40;99.90;;;;;;4132965;28;20050;-71
2023/10/27 02:29:32;;;;;;;7.32;3.92;;;12.40;99.90;;;;;;4131677;28;20053;-70
2023/10/27 02:31:33;;;;;;;10.07;4.80;;;12.40;99.90;;;;;;4128010;28;20038;-70
2023/10/27 02:33:33;;;;;;;8.38;4.05;;;12.40;99.90;;;;;;4127750;28;20066;-71
2023/10/27 02:35:34;;;;;;;10.45;4.10;;;12.40;99.90;;;;;;4127824;28;20145;-72
2023/10/27 02:37:34;;;;;;;9.73;4.70;;;12.40;99.90;;;;;;4130124;28;20042;-72
2023/10/27 02:39:35;;;;;;;7.93;4.35;;;12.40;99.90;;;;;;4128117;28;20057;-72
2023/10/27 02:41:36;;;;;;;10.80;4.20;;;12.40;99.90;;;;;;4126310;28;20081;-72
2023/10/27 02:43:38;;;;;;;9.52;4.15;;;12.40;99.90;;;;;;4126207;28;20030;-71
2023/10/27 02:45:38;;;;;;;6.95;3.53;;;12.40;99.90;;;;;;4111548;28;20043;-71
2023/10/27 02:47:39;;;;;;;7.30;3.40;;;12.40;99.90;;;;;;4126960;28;20108;-72
2023/10/27 02:49:39;;;;;;;7.63;4.47;;;12.40;99.90;;;;;;4127644;28;20470;-71
2023/10/27 02:51:40;;;;;;;8.48;4.20;;;12.40;99.90;;;;;;4125113;28;20046;-72
2023/10/27 02:53:41;;;;;;;7.47;4.20;;;12.40;99.90;;;;;;4127212;28;20129;-72
2023/10/27 02:55:41;;;;;;;10.00;3.97;;;12.40;99.90;;;;;;4126905;28;20127;-71
2023/10/27 02:57:42;;;;;;;8.18;4.03;;;12.40;99.90;;;;;;4127176;28;20482;-72
2023/10/27 02:59:42;;;;;;;8.20;3.35;;;12.40;99.90;;;;;;4127178;28;20034;-72
2023/10/27 03:01:46;;;;;;;8.82;3.80;;;12.40;99.90;;;;;;4127947;28;21100;-72
2023/10/27 03:03:47;;;;;;;10.45;3.95;;;12.40;99.90;;;;;;4127818;28;20038;-72
2023/10/27 03:05:49;;;;;;;7.82;3.85;;;12.40;99.90;;;;;;4126244;28;20165;-72
2023/10/27 03:07:49;;;;;;;6.22;3.45;;;12.40;99.90;;;;;;4126183;28;20039;-72
2023/10/27 03:09:50;;;;;;;7.28;3.75;;;12.40;99.90;;;;;;4128157;28;20092;-71
2023/10/27 03:11:50;;;;;;;7.50;3.92;;;12.30;99.90;;;;;;4126310;28;20117;-72
2023/10/27 03:13:51;;;;;;;11.57;3.90;;;12.30;99.90;;;;;;4113176;28;20435;-72
2023/10/27 03:15:51;;;;;;;7.63;3.80;;;12.30;99.90;;;;;;4111825;28;20042;-72
2023/10/27 03:17:52;;;;;;;6.63;3.15;;;12.30;99.90;;;;;;4126022;28;20050;-72
2023/10/27 03:19:54;;;;;;;6.20;3.40;;;12.30;99.90;;;;;;4127050;28;20030;-72
2023/10/27 03:21:56;;;;;;;8.43;3.33;;;12.30;99.90;;;;;;4123783;28;20038;-72
2023/10/27 03:23:56;;;;;;;8.95;3.53;;;12.30;99.90;;;;;;4128066;28;20041;-71
2023/10/27 03:25:58;;;;;;;9.80;3.70;;;12.20;99.90;;;;;;4125314;28;20080;-72
2023/10/27 03:27:59;;;;;;;8.18;3.47;;;12.20;99.90;;;;;;4111733;28;25126;-72
2023/10/27 03:29:59;;;;;;;9.68;3.90;;;12.20;99.90;;;;;;4127648;28;20082;-71
2023/10/27 03:32:00;;;;;;;6.93;3.20;;;12.10;99.90;;;;;;4124186;28;20042;-72
2023/10/27 03:34:01;;;;;;;9.95;4.15;;;12.20;99.90;;;;;;4126940;28;20026;-72
2023/10/27 03:36:02;;;;;;;6.68;3.05;;;12.20;99.90;;;;;;4125811;28;20739;-72
2023/10/27 03:38:02;;;;;;;9.32;3.42;;;12.20;99.90;;;;;;4126397;28;20065;-72
2023/10/27 03:40:04;;;;;;;8.68;3.85;;;12.10;99.90;;;;;;4127143;28;20034;-73
2023/10/27 03:42:05;;;;;;;6.53;3.30;;;12.10;99.90;;;;;;4125569;28;20430;-72
2023/10/27 03:44:06;;;;;;;8.35;3.67;;;12.10;99.90;;;;;;4127845;28;20034;-72
2023/10/27 03:46:07;;;;;;;9.15;3.45;;;12.10;99.90;;;;;;4128189;28;20065;-72
2023/10/27 03:48:08;;;;;;;8.43;3.53;;;12.10;99.90;;;;;;4126278;28;20047;-71
2023/10/27 03:50:10;;;;;;;13.57;4.15;;;12.10;99.90;;;;;;4123409;28;20081;-72
2023/10/27 03:52:11;;;;;;;7.75;3.10;;;12.10;99.90;;;;;;4124578;28;20125;-71
2023/10/27 03:54:11;;;;;;;8.43;3.42;;;12.10;99.90;;;;;;4125796;28;20077;-71
2023/10/27 03:56:13;;;;;;;6.63;3.35;;;12.10;99.90;;;;;;4125786;28;20042;-71
2023/10/27 03:58:17;;;;;;;8.63;3.15;;;12.10;99.90;;;;;;4112072;28;20043;-71
2023/10/27 04:00:17;;;;;;;7.80;2.88;;;12.10;99.90;;;;;;4125595;28;20047;-71
2023/10/27 04:02:18;;;;;;;9.45;3.30;;;12.10;99.90;;;;;;4125961;28;21191;-71
2023/10/27 04:04:19;;;;;;;8.68;3.42;;;12.10;99.90;;;;;;4126928;28;20105;-72
2023/10/27 04:06:20;;;;;;;8.20;3.53;;;12.10;99.90;;;;;;4124986;28;20049;-72
2023/10/27 04:08:20;;;;;;;6.35;3.17;;;12.00;99.90;;;;;;4124722;28;20042;-72
2023/10/27 04:10:21;;;;;;;7.35;3.13;;;12.10;99.90;;;;;;4123941;28;20170;-71
2023/10/27 04:12:21;;;;;;;9.38;3.67;;;12.10;99.90;;;;;;4127051;28;20069;-72
2023/10/27 04:14:22;;;;;;;8.23;3.50;;;12.10;99.90;;;;;;4125939;28;20057;-72
2023/10/27 04:16:22;;;;;;;6.05;3.15;;;12.10;99.90;;;;;;4125497;28;20485;-72
2023/10/27 04:18:23;;;;;;;9.38;3.63;;;12.10;99.90;;;;;;4124096;28;20060;-72
2023/10/27 04:20:24;;;;;;;7.18;3.15;;;12.00;99.90;;;;;;4123331;28;20757;-72
2023/10/27 04:22:24;;;;;;;6.60;3.70;;;12.10;99.90;;;;;;4126995;28;20544;-72
2023/10/27 04:24:25;;;;;;;7.28;3.63;;;12.10;99.90;;;;;;4109907;28;20039;-72
2023/10/27 04:26:25;;;;;;;6.78;3.10;;;12.10;99.90;;;;;;4124151;28;20034;-72
2023/10/27 04:28:26;;;;;;;11.77;4.00;;;12.10;99.90;;;;;;4126480;28;20038;-71
2023/10/27 04:30:27;;;;;;;11.57;3.88;;;12.00;99.90;;;;;;4128638;28;20115;-72
2023/10/27 04:32:29;;;;;;;7.47;3.70;;;12.00;99.90;;;;;;4128453;28;20081;-72
2023/10/27 04:34:30;;;;;;;7.85;3.58;;;12.00;99.90;;;;;;4127894;28;20529;-72
2023/10/27 04:36:31;;;;;;;10.02;3.72;;;12.10;99.90;;;;;;4125899;28;20042;-72
2023/10/27 04:38:31;;;;;;;8.63;3.65;;;12.00;99.90;;;;;;4130780;28;20046;-72
2023/10/27 04:40:34;;;;;;;10.75;4.07;;;12.00;99.90;;;;;;4097735;28;20098;-72
2023/10/27 04:42:34;;;;;;;10.15;4.18;;;12.00;99.90;;;;;;4129777;28;20521;-72
2023/10/27 04:44:35;;;;;;;9.77;4.00;;;12.00;99.90;;;;;;4129235;28;20042;-72
2023/10/27 04:46:35;;;;;;;6.00;2.83;;;12.00;99.90;;;;;;4127306;28;20026;-72
2023/10/27 04:48:36;;;;;;;10.23;3.55;;;12.00;99.90;;;;;;4130506;28;20034;-72
2023/10/27 04:50:37;;;;;;;6.70;3.20;;;12.00;99.90;;;;;;4130470;28;20046;-71
2023/10/27 04:52:37;;;;;;;7.03;3.17;;;12.00;99.90;;;;;;4131187;28;20486;-71
2023/10/27 04:54:38;;;;;;;7.93;3.35;;;12.00;99.90;;;;;;4126389;28;20046;-72
2023/10/27 04:56:39;;;;;;;5.85;2.85;;;12.10;99.90;;;;;;4130218;28;20431;-72
2023/10/27 04:58:42;;;;;;;7.30;3.03;;;12.00;99.90;;;;;;4117146;28;20041;-71
2023/10/27 05:00:43;;;;;;;6.47;2.92;;;12.10;99.90;;;;;;4116942;28;20157;-71
2023/10/27 05:02:43;;;;;;;10.90;3.55;;;12.10;99.90;;;;;;4130109;28;20081;-72
2023/10/27 05:04:44;;;;;;;8.93;3.55;;;12.10;99.90;;;;;;4131243;28;20116;-72
2023/10/27 05:06:45;;;;;;;7.80;3.10;;;12.10;99.90;;;;;;4128459;28;20058;-72
2023/10/27 05:08:45;;;;;;;6.43;3.03;;;12.10;99.90;;;;;;4128358;28;20484;-72
2023/10/27 05:10:47;;;;;;;6.93;3.10;;;12.10;99.90;;;;;;4124551;28;20137;-72
2023/10/27 05:12:48;;;;;;;8.02;3.53;;;12.10;99.90;;;;;;4128612;28;20058;-72
2023/10/27 05:14:49;;;;;;;7.30;3.25;;;12.10;99.90;;;;;;4125431;28;20439;-71
2023/10/27 05:16:50;;;;;;;5.97;3.38;;;12.10;99.90;;;;;;4107023;28;20039;-71
2023/10/27 05:18:50;;;;;;;6.75;2.85;;;12.10;99.90;;;;;;4123190;28;20034;-71
2023/10/27 05:20:51;;;;;;;6.68;2.83;;;12.10;99.90;;;;;;4122392;28;21533;-71
2023/10/27 05:22:52;;;;;;;6.93;3.15;;;12.10;99.90;;;;;;4123006;28;20103;-73
2023/10/27 05:24:52;;;;;;;6.50;3.10;;;12.10;99.90;;;;;;4123438;28;20363;-74
2023/10/27 05:26:53;;;;;;;7.50;3.10;;;12.20;99.90;;;;;;4121263;28;20442;-69
2023/10/27 05:28:53;;;;;;;7.60;4.13;;;12.20;99.90;;;;;;4120192;28;20057;-71
2023/10/27 05:30:54;;;;;;;8.77;3.88;;;12.20;99.90;;;;;;4116321;28;21151;-71
2023/10/27 05:32:55;;;;;;;6.68;2.92;;;12.20;99.90;;;;;;4118046;28;20086;-71
2023/10/27 05:34:56;;;;;;;6.18;3.28;;;12.20;99.90;;;;;;4116359;28;20053;-71
2023/10/27 05:36:56;;;;;;;7.32;3.05;;;12.20;99.90;;;;;;4113635;28;20096;-71
2023/10/27 05:38:57;;;;;;;7.70;4.47;;;12.20;99.90;;;;;;4119438;28;20038;-71
2023/10/27 05:40:57;;;;;;;9.52;5.22;;;12.30;99.90;;;;;;4116117;28;20101;-71
2023/10/27 05:42:58;;;;;;;9.38;4.20;;;12.30;99.90;;;;;;4117003;28;20031;-70
2023/10/27 05:44:58;;;;;;;6.65;3.88;;;12.20;99.90;;;;;;4117749;28;20148;-71
2023/10/27 05:46:59;;;;;;;7.32;3.55;;;12.30;99.90;;;;;;4116212;28;20042;-69
2023/10/27 05:49:00;;;;;;;7.88;3.33;;;12.30;99.90;;;;;;4117322;28;20499;-69
2023/10/27 05:51:03;;;;;;;5.97;2.92;;;12.30;99.90;;;;;;4117824;28;20037;-69
2023/10/27 05:53:04;;;;;;;7.65;3.13;;;12.30;99.90;;;;;;4119661;28;20050;-69
2023/10/27 05:55:05;;;;;;;5.10;2.78;;;12.30;99.90;;;;;;4099468;28;20523;-69
2023/10/27 05:57:08;;;;;;;7.55;3.38;;;12.30;99.90;;;;;;4114664;28;20049;-69
2023/10/27 05:59:09;;;;;;;4.50;2.90;;;12.30;99.90;;;;;;4094558;28;20122;-69
2023/10/27 06:01:09;;;;;;;5.80;3.03;;;12.30;99.90;;;;;;4113089;28;20058;-69
2023/10/27 06:03:10;;;;;;;8.60;3.40;;;12.30;99.90;;;;;;4116790;28;20039;-69
2023/10/27 06:05:10;;;;;;;8.55;3.13;;;12.20;99.90;;;;;;4099834;28;20051;-69
2023/10/27 06:07:15;;;;;;;7.35;3.00;;;12.20;99.90;;;;;;4119033;28;20169;-69
2023/10/27 06:09:16;;;;;;;5.03;2.88;;;12.30;99.90;;;;;;4119199;28;20030;-69
2023/10/27 06:11:16;;;;;;;8.00;3.00;;;12.20;99.90;;;;;;4117663;28;20056;-69
2023/10/27 06:13:17;;;;;;;8.15;3.22;;;12.20;99.90;;;;;;4101911;28;20503;-69
2023/10/27 06:15:18;;;;;;;7.90;3.10;;;12.20;99.90;;;;;;4115187;28;20038;-69
2023/10/27 06:17:18;;;;;;;6.43;3.20;;;12.20;99.90;;;;;;4119516;28;20499;-69
2023/10/27 06:19:20;;;;;;;7.18;3.10;;;12.20;99.90;;;;;;4111706;28;20047;-69
2023/10/27 06:21:21;;;;;;;9.85;3.85;;;12.10;99.90;;;;;;4118561;28;20446;-68
2023/10/27 06:23:21;;;;;;;9.80;3.45;;;12.20;99.90;;;;;;4118849;28;20042;-69
2023/10/27 06:25:25;;;;;;;11.93;4.07;;;12.10;99.90;;;;;;4117701;28;21596;-73
2023/10/27 06:27:26;;;;;;;6.47;2.88;;;12.10;99.90;;;;;;4118592;28;20056;-73
2023/10/27 06:29:27;;;;;;;6.85;3.70;;;12.10;99.90;;;;;;4119787;28;20058;-73
2023/10/27 06:31:28;;;;;;;6.18;3.55;;;12.10;99.90;;;;;;4114187;28;20113;-73
2023/10/27 06:33:32;;;;;;;7.25;3.67;;;12.10;99.90;;;;;;4126916;28;20034;-73
2023/10/27 06:35:33;;;;;;;12.25;4.20;;;12.10;99.90;;;;;;4123364;28;20121;-72
2023/10/27 06:37:35;;;;;;;6.05;3.65;;;12.10;99.90;;;;;;4123541;28;20050;-73
2023/10/27 06:39:35;;;;;;;7.07;3.20;;;12.00;99.90;;;;;;4125711;28;20547;-73
2023/10/27 06:41:37;;;;;;;9.77;4.15;;;12.10;99.90;;;;;;4123206;28;20065;-73
2023/10/27 06:43:38;;;;;;;11.00;4.45;;;12.10;99.90;;;;;;4121810;28;20046;-73
2023/10/27 06:45:39;;;;;;;11.32;4.22;;;12.10;99.90;;;;;;4122232;28;20050;-73
2023/10/27 06:47:40;;;;;;;8.00;4.38;;;12.10;99.90;;;;;;4123729;28;20041;-73
2023/10/27 06:49:41;;;;;;;8.60;4.35;;;12.00;99.90;;;;;;4126179;28;20136;-73
2023/10/27 06:51:41;;;;;;;12.52;5.05;;;12.00;99.90;;;;;;4107799;28;20086;-73
2023/10/27 06:53:43;;;;;;;7.82;4.03;;;12.00;99.90;;;;;;4107531;28;20049;-73
2023/10/27 06:55:43;;;;;;;8.13;4.18;;;12.00;99.90;;;;;;4123675;28;20424;-73
2023/10/27 06:57:44;;;;;;;10.75;4.53;;;12.00;99.90;;;;;;4124177;28;20034;-73
2023/10/27 06:59:44;;;;;;;13.30;4.45;;;12.00;99.90;;;;;;4124409;28;20042;-73
2023/10/27 07:01:45;;;;;;;6.60;3.78;;;12.00;99.90;;;;;;4120325;28;20053;-73
2023/10/27 07:03:46;;;;;;;12.75;4.43;;;12.00;99.90;;;;;;4124908;28;20031;-73
2023/10/27 07:05:46;;;;;;;10.38;4.38;;;12.00;99.90;;;;;;4124108;28;20152;-73
2023/10/27 07:07:47;;;;;;;10.30;4.57;;;12.00;99.90;;;;;;4125739;28;20116;-73
2023/10/27 07:09:48;;;;;;;8.98;3.33;;;12.00;99.90;;;;;;4124917;28;20407;-72
2023/10/27 07:11:49;;;;;;;8.85;3.83;;;12.00;99.90;;;;;;4120915;28;20088;-72
2023/10/27 07:13:50;;;;;;;11.65;4.53;;;12.00;99.90;;;;;;4125284;28;20446;-72
2023/10/27 07:15:50;;;;;;;6.65;3.45;;;12.00;99.90;;;;;;4122466;28;20038;-72
2023/10/27 07:17:51;;;;;;;10.30;4.18;;;12.00;99.90;;;;;;4125055;28;20133;-72
2023/10/27 07:19:52;;;;;;;6.25;3.60;;;12.00;99.90;;;;;;4125153;28;20722;-72
2023/10/27 07:21:52;;;;;;;6.93;3.72;;;12.00;99.90;;;;;;4122968;28;20495;-72
2023/10/27 07:23:53;;;;;;;5.78;3.42;;;12.00;99.90;;;;;;4106775;28;20037;-72
2023/10/27 07:25:54;;;;;;;6.47;3.50;;;12.00;99.90;;;;;;4122449;28;20073;-72
2023/10/27 07:27:55;;;;;;;6.22;3.30;;;12.00;99.90;;;;;;4121786;28;20050;-72
2023/10/27 07:29:56;;;;;;;6.88;3.30;;;11.90;99.90;;;;;;4123265;28;20565;-72
2023/10/27 07:31:56;;;;;;;7.72;4.20;;;12.00;99.90;;;;;;4123555;28;20073;-73
2023/10/27 07:33:58;;;;;;;7.05;3.13;;;12.00;99.90;;;;;;4124182;28;20042;-74
2023/10/27 07:36:00;;;;;;;8.05;4.22;;;12.00;99.90;;;;;;4106879;28;20138;-73
2023/10/27 07:38:00;;;;;;;8.02;4.32;;;12.00;99.90;;;;;;4124461;28;20046;-73
2023/10/27 07:40:03;;;;;;;4.78;2.80;;;12.00;99.90;;;;;;4122959;28;20142;-73
2023/10/27 07:42:04;;;;;;;13.57;4.15;;;12.00;99.90;;;;;;4122939;28;20526;-74
2023/10/27 07:44:05;;;;;;;7.18;3.90;;;12.00;99.90;;;;;;4124206;28;20046;-73
2023/10/27 07:46:06;;;;;;;6.30;3.58;;;12.10;99.90;;;;;;4121978;28;20398;-73
2023/10/27 07:48:06;;;;;;;8.63;3.47;;;12.00;99.90;;;;;;4125040;28;20081;-73
2023/10/27 07:50:07;;;;;;;8.63;3.70;;;12.00;99.90;;;;;;4123373;28;20050;-73
2023/10/27 07:52:08;;;;;;;8.15;3.92;;;12.10;99.90;;;;;;4124122;28;20046;-75
2023/10/27 07:54:09;;;;;;;7.97;4.00;;;12.10;99.90;;;;;;4091277;28;20046;-72
2023/10/27 07:56:10;;;;;;;8.88;4.40;;;12.10;99.90;;;;;;4121032;28;20142;-72
2023/10/27 07:58:11;;;;;;;12.88;4.43;;;12.10;99.90;;;;;;4123331;28;20487;-72
2023/10/27 08:00:11;;;;;;;6.00;3.95;;;12.10;99.90;;;;;;4122421;28;20487;-72
2023/10/27 08:02:12;;;;;;;6.00;3.63;;;12.10;99.90;;;;;;4124526;28;20038;-72
2023/10/27 08:04:13;;;;;;;6.38;3.20;;;12.10;99.90;;;;;;4125121;28;20047;-72
2023/10/27 08:06:13;;;;;;;5.30;3.13;;;12.20;99.90;;;;;;4122007;28;20469;-71
2023/10/27 08:08:14;;;;;;;6.10;3.53;;;12.20;99.90;;;;;;4123964;28;20046;-71
2023/10/27 08:10:16;;;;;;;5.68;2.63;;;12.20;99.90;;;;;;4105875;28;20043;-72
2023/10/27 08:12:17;;;;;;;5.65;2.53;;;12.20;99.90;;;;;;4124140;28;21104;-73
2023/10/27 08:14:17;;;;;;;5.38;2.80;;;12.20;99.90;;;;;;4123382;28;20045;-73
2023/10/27 08:16:18;;;;;;;4.88;2.70;;;12.30;99.90;;;;;;4121851;28;20105;-73
2023/10/27 08:18:19;;;;;;;5.47;2.90;;;12.30;99.90;;;;;;4124625;28;20379;-74
2023/10/27 08:20:19;;;;;;;8.23;3.22;;;12.30;99.90;;;;;;4122006;28;20062;-72
2023/10/27 08:22:20;;;;;;;6.65;2.40;;;12.30;99.90;;;;;;4123569;28;20092;-72
2023/10/27 08:24:20;;;;;;;5.03;2.72;;;12.30;99.90;;;;;;4122608;28;20045;-72
2023/10/27 08:26:21;;;;;;;5.28;2.35;;;12.30;99.90;;;;;;4121244;28;20618;-72
2023/10/27 08:28:22;;;;;;;4.38;2.85;;;12.30;99.90;;;;;;4124396;28;20034;-71
2023/10/27 08:30:22;;;;;;;4.70;2.40;;;12.30;99.90;;;;;;4120710;28;20050;-71
2023/10/27 08:32:23;;;;;;;3.88;2.10;;;12.30;99.90;;;;;;4123508;28;20041;-71
2023/10/27 08:34:23;;;;;;;4.70;2.50;;;12.40;99.90;;;;;;4123399;28;20108;-71
2023/10/27 08:36:24;;;;;;;5.25;2.50;;;12.40;99.90;;;;;;4121842;28;20037;-71
2023/10/27 08:38:26;;;;;;;3.75;2.33;;;12.40;99.90;;;;;;4123366;28;20038;-71
2023/10/27 08:40:27;;;;;;;4.75;2.33;;;12.40;99.90;;;;;;4121412;28;20117;-71
2023/10/27 08:42:32;;;;;;;5.57;2.92;;;12.40;99.90;;;;;;4123539;28;20073;-71
2023/10/27 08:44:34;;;;;;;4.30;2.40;;;12.40;99.90;;;;;;4122924;28;20084;-71
2023/10/27 08:46:34;;;;;;;5.88;2.45;;;12.40;99.90;;;;;;4103328;28;20129;-71
2023/10/27 08:48:35;;;;;;;5.13;2.58;;;12.40;99.90;;;;;;4126218;28;20067;-72
2023/10/27 08:50:38;;;;;;;4.60;2.40;;;12.50;99.90;;;;;;4123621;28;20589;-72
2023/10/27 08:52:39;;;;;;;5.43;2.28;;;12.50;99.90;;;;;;4123595;28;20501;-71
2023/10/27 08:54:45;;;;;;;4.57;2.10;;;12.50;99.90;;;;;;4122619;28;20395;-72
2023/10/27 08:56:45;;;;;;;2.78;1.90;;;12.50;99.90;;;;;;4121376;28;21963;-72
2023/10/27 08:58:53;;;;;;;3.60;1.60;;;12.50;99.90;;;;;;4122703;28;20038;-72
2023/10/27 09:00:54;;;;;;;4.53;2.20;;;12.40;99.90;;;;;;4118775;28;20057;-72
2023/10/27 09:02:54;;;;;;;4.15;2.10;;;12.50;99.90;;;;;;4103577;28;20550;-71
2023/10/27 09:05:13;;;;;;;2.78;1.90;;;12.50;99.90;;;;;;4122609;28;20181;-72
2023/10/27 09:07:14;;;;;;;3.15;1.88;;;12.50;99.90;;;;;;4123310;28;20039;-71
2023/10/27 09:09:14;;;;;;;4.15;1.88;;;12.50;99.90;;;;;;4123250;28;20038;-72
2023/10/27 09:11:16;;;;;;;2.60;2.05;;;12.50;99.90;;;;;;4120668;28;20042;-72
2023/10/27 09:13:23;;;;;;;3.70;2.00;;;12.50;99.90;;;;;;4106210;28;20039;-72
2023/10/27 09:15:23;;;;;;;3.85;2.20;;;12.50;99.90;;;;;;4120892;28;20046;-72
2023/10/27 09:17:24;;;;;;;4.00;2.10;;;12.50;99.90;;;;;;4123806;28;20049;-72
2023/10/27 09:19:25;;;;;;;3.88;2.45;;;12.50;99.90;;;;;;4123063;28;20034;-72
2023/10/27 09:21:32;;;;;;;3.08;2.00;;;12.50;99.90;;;;;;4120595;28;20101;-72
2023/10/27 09:23:45;;;;;;;2.90;1.92;;;12.50;99.90;;;;;;4122742;28;20140;-72
2023/10/27 09:25:46;;;;;;;;;;;12.50;99.90;;;;;;4121834;28;20094;-72
2023/10/27 09:27:49;;;;;;;3.55;1.92;;;12.50;99.90;;;;;;4106673;28;19918;-72
2023/10/27 09:29:51;;;;;;;3.30;2.17;;;12.50;99.90;;;;;;4122001;28;20184;-72
2023/10/27 09:31:52;;;;;;;2.00;1.67;;;12.60;99.90;;;;;;4121398;28;20043;-72
2023/10/27 09:33:53;;;;;;;1.70;1.60;;;12.60;99.90;;;;;;4122808;28;20472;-71
2023/10/27 09:35:54;;;;;;;2.83;2.15;;;12.50;99.90;;;;;;4122442;28;20410;-71
2023/10/27 09:37:55;;;;;;;2.92;1.77;;;12.60;99.90;;;;;;4123155;28;20050;-71
2023/10/27 09:39:56;;;;;;;2.67;1.80;;;12.60;99.90;;;;;;4104864;28;20061;-73
2023/10/27 09:41:58;;;;;;;2.47;1.80;;;12.60;99.90;;;;;;4120312;28;20038;-73
2023/10/27 09:43:59;;;;;;;3.42;1.95;;;12.60;99.90;;;;;;4123000;28;20134;-72
2023/10/27 09:46:04;;;;;;;4.78;2.20;;;12.70;99.90;;;;;;4119345;28;20074;-72
2023/10/27 09:48:07;;;;;;;2.17;1.90;;;12.70;99.90;;;;;;4119079;28;20053;-72
2023/10/27 09:50:12;;;;;;;4.15;2.70;;;12.70;99.90;;;;;;4119566;28;20049;-72
2023/10/27 09:52:19;;;;;;;3.75;2.88;;;12.80;99.90;;;;;;4119353;28;20053;-71
2023/10/27 09:54:20;;;;;;;3.63;2.72;;;12.80;99.90;;;;;;4120659;28;20053;-75
2023/10/27 09:56:21;;;;;;;4.25;2.80;;;12.80;99.90;;;;;;4116931;28;20447;-74
2023/10/27 09:58:22;;;;;;;3.72;3.13;;;12.70;99.90;;;;;;4100475;28;20515;-75
2023/10/27 10:00:27;;;;;;;3.03;2.72;;;12.70;99.90;;;;;;4117003;28;20494;-75
2023/10/27 10:02:32;;;;;;;4.50;3.13;;;12.80;99.90;;;;;;4116545;28;20034;-74
2023/10/27 10:04:50;;;;;;;3.85;2.95;;;12.80;99.90;;;;;;4117287;28;20042;-74
2023/10/27 10:06:51;;;;;;;3.17;2.88;;;12.80;99.90;;;;;;4115332;28;20041;-74
2023/10/27 10:09:11;;;;;;;4.10;3.25;;;12.80;99.90;;;;;;4120581;28;20113;-75
2023/10/27 10:11:16;;;;;;;4.28;3.53;;;12.80;99.90;;;;;;4118419;28;20514;-74
2023/10/27 10:13:20;;;;;;;3.92;3.33;;;12.80;99.90;;;;;;4119530;28;20042;-75
2023/10/27 10:15:21;;;;;;;6.13;3.85;;;12.80;99.90;;;;;;4118957;28;20042;-75
2023/10/27 10:17:40;;;;;;;4.30;3.38;;;12.80;99.90;;;;;;4120751;28;20181;-74
2023/10/27 10:19:51;;;;;;;3.40;3.00;;;12.80;99.90;;;;;;4119265;28;20057;-75
2023/10/27 10:21:52;;;;;;;5.00;4.25;;;12.80;99.90;;;;;;4117133;28;20494;-74
2023/10/27 10:23:52;;;;;;;5.07;4.30;;;12.90;99.90;;;;;;4119298;28;20039;-75
2023/10/27 10:25:55;;;;;;;4.75;4.10;;;12.90;99.90;;;;;;4121946;28;20501;-75
2023/10/27 10:28:11;;;;;;;5.93;4.15;;;12.90;99.90;;;;;;4105528;28;20438;-74
2023/10/27 10:30:20;;;;;;;4.97;4.20;;;12.80;99.90;;;;;;4120970;28;20136;-74